createdAt,value
2023-03-17T00:01:29.578Z,12.70
2023-03-17T00:03:38.977Z,12.53
2023-03-17T00:05:48.073Z,14.07
2023-03-17T00:07:56.956Z,14.50
2023-03-17T00:10:09.658Z,18.33
2023-03-17T00:12:19.872Z,14.77
2023-03-17T00:14:28.463Z,20.73
2023-03-17T00:16:39.905Z,13.30
2023-03-17T00:18:49.599Z,15.10
2023-03-17T00:20:58.944Z,20.43
2023-03-17T00:23:07.965Z,16.10
2023-03-17T00:25:22.305Z,13.23
2023-03-17T00:27:31.310Z,13.77
2023-03-17T00:29:40.600Z,16.17
2023-03-17T00:31:50.913Z,10.90
2023-03-17T00:34:00.729Z,23.57
2023-03-17T00:36:13.023Z,13.17
2023-03-17T00:38:22.407Z,13.10
2023-03-17T00:40:33.334Z,12.77
2023-03-17T00:42:42.553Z,12.17
2023-03-17T00:44:51.333Z,18.37
2023-03-17T00:47:00.953Z,19.67
2023-03-17T00:51:25.145Z,12.30
2023-03-17T00:53:34.477Z,11.83
2023-03-17T00:55:45.829Z,11.50
2023-03-17T00:57:54.797Z,15.13
2023-03-17T01:00:04.471Z,15.10
2023-03-17T01:02:14.068Z,12.83
2023-03-17T01:04:22.957Z,11.80
2023-03-17T01:06:32.117Z,9.00
2023-03-17T01:08:41.797Z,21.33
2023-03-17T01:10:52.696Z,24.67
2023-03-17T01:13:02.567Z,18.83
2023-03-17T01:15:12.757Z,13.10
2023-03-17T01:17:22.141Z,18.83
2023-03-17T01:19:31.171Z,11.30
2023-03-17T01:21:39.727Z,12.43
2023-03-17T01:23:48.588Z,11.33
2023-03-17T01:25:59.441Z,11.63
2023-03-17T01:28:08.709Z,11.83
2023-03-17T01:30:25.247Z,13.57
2023-03-17T01:32:34.111Z,14.40
2023-03-17T01:34:42.673Z,8.40
2023-03-17T01:36:51.491Z,16.07
2023-03-17T01:39:02.242Z,12.83
2023-03-17T01:41:12.666Z,12.57
2023-03-17T01:43:23.233Z,12.33
2023-03-17T01:45:51.999Z,12.10
2023-03-17T01:48:00.691Z,14.63
2023-03-17T01:50:10.839Z,15.20
2023-03-17T01:52:21.022Z,11.70
2023-03-17T01:54:32.784Z,13.27
2023-03-17T01:56:46.713Z,10.97
2023-03-17T01:58:56.444Z,10.40
2023-03-17T02:01:05.423Z,8.90
2023-03-17T02:03:14.234Z,7.93
2023-03-17T02:05:24.327Z,8.73
2023-03-17T02:07:33.365Z,11.30
2023-03-17T02:09:42.163Z,8.63
2023-03-17T02:11:52.865Z,6.90
2023-03-17T02:14:01.838Z,10.87
2023-03-17T02:16:15.988Z,9.73
2023-03-17T02:18:25.149Z,7.40
2023-03-17T02:20:52.434Z,5.47
2023-03-17T02:23:04.238Z,6.77
2023-03-17T02:25:14.108Z,6.67
2023-03-17T02:27:24.342Z,7.17
2023-03-17T02:29:35.013Z,9.17
2023-03-17T02:31:44.988Z,7.00
2023-03-17T02:33:53.877Z,6.53
2023-03-17T02:36:03.448Z,8.17
2023-03-17T02:38:13.852Z,10.13
2023-03-17T02:40:23.192Z,6.03
2023-03-17T02:42:32.678Z,9.50
2023-03-17T02:44:41.740Z,5.77
2023-03-17T02:46:50.440Z,3.80
2023-03-17T02:48:59.264Z,4.60
2023-03-17T02:51:08.484Z,5.90
2023-03-17T02:53:19.211Z,6.37
2023-03-17T02:55:28.240Z,5.40
2023-03-17T02:57:37.221Z,5.03
2023-03-17T02:59:46.447Z,3.43
2023-03-17T03:01:56.262Z,4.23
2023-03-17T03:04:04.959Z,6.27
2023-03-17T03:06:14.086Z,3.33
2023-03-17T03:08:24.636Z,2.77
2023-03-17T03:10:33.723Z,3.53
2023-03-17T03:12:42.312Z,2.87
2023-03-17T03:14:51.280Z,5.77
2023-03-17T03:17:00.311Z,4.37
2023-03-17T03:19:09.065Z,5.20
2023-03-17T03:21:17.929Z,3.00
2023-03-17T03:23:28.303Z,1.90
2023-03-17T03:25:38.597Z,5.00
2023-03-17T03:27:47.609Z,2.40
2023-03-17T03:29:56.714Z,6.97
2023-03-17T03:32:06.032Z,3.63
2023-03-17T03:34:15.029Z,1.87
2023-03-17T03:36:25.557Z,2.57
2023-03-17T03:38:36.085Z,3.13
2023-03-17T03:40:44.703Z,5.47
2023-03-17T03:42:53.863Z,2.47
2023-03-17T03:45:03.017Z,1.77
2023-03-17T03:47:12.388Z,5.10
2023-03-17T03:49:22.863Z,3.67
2023-03-17T03:51:31.744Z,5.03
2023-03-17T03:53:42.989Z,4.83
2023-03-17T03:55:51.924Z,6.00
2023-03-17T03:58:00.783Z,4.57
2023-03-17T04:00:11.553Z,3.37
2023-03-17T04:02:20.406Z,3.70
2023-03-17T04:04:29.871Z,2.53
2023-03-17T04:06:40.152Z,3.70
2023-03-17T04:08:50.914Z,2.50
2023-03-17T04:11:00.607Z,4.63
2023-03-17T04:13:10.113Z,2.90
2023-03-17T04:15:19.754Z,4.37
2023-03-17T04:17:28.967Z,7.27
2023-03-17T04:19:38.329Z,3.03
2023-03-17T04:21:47.423Z,3.30
2023-03-17T04:23:58.382Z,2.30
2023-03-17T04:26:07.943Z,7.27
2023-03-17T04:28:16.706Z,2.53
2023-03-17T04:30:25.631Z,2.00
2023-03-17T04:32:34.512Z,3.73
2023-03-17T04:34:43.523Z,2.03
2023-03-17T04:36:52.494Z,1.73
2023-03-17T04:39:04.102Z,2.77
2023-03-17T04:41:13.770Z,3.37
2023-03-17T04:43:22.991Z,4.00
2023-03-17T04:45:31.716Z,3.30
2023-03-17T04:47:40.650Z,2.27
2023-03-17T04:49:50.078Z,4.07
2023-03-17T04:51:58.903Z,4.57
2023-03-17T04:54:09.968Z,2.53
2023-03-17T04:56:19.302Z,2.87
2023-03-17T04:58:31.045Z,4.80
2023-03-17T05:00:40.076Z,2.00
2023-03-17T05:02:48.900Z,3.50
2023-03-17T05:04:57.831Z,2.53
2023-03-17T05:07:06.795Z,1.20
2023-03-17T05:09:17.181Z,1.97
2023-03-17T05:11:25.702Z,2.33
2023-03-17T05:13:34.718Z,2.30
2023-03-17T05:15:46.384Z,3.57
2023-03-17T05:17:54.981Z,2.10
2023-03-17T05:20:04.469Z,1.70
2023-03-17T05:22:13.643Z,2.77
2023-03-17T05:24:24.492Z,3.90
2023-03-17T05:26:33.084Z,2.57
2023-03-17T05:28:41.904Z,4.17
2023-03-17T05:30:50.823Z,2.17
2023-03-17T05:33:00.950Z,2.80
2023-03-17T05:35:10.385Z,2.53
2023-03-17T05:37:19.096Z,2.40
2023-03-17T05:39:30.215Z,2.50
2023-03-17T05:41:39.169Z,2.00
2023-03-17T05:43:47.824Z,2.30
2023-03-17T05:45:57.166Z,2.40
2023-03-17T05:48:07.019Z,1.73
2023-03-17T05:50:16.318Z,3.83
2023-03-17T05:52:25.314Z,4.17
2023-03-17T05:54:36.110Z,2.20
2023-03-17T05:56:44.885Z,0.83
2023-03-17T05:58:53.397Z,0.63
2023-03-17T06:01:02.384Z,1.67
2023-03-17T06:03:11.247Z,2.00
2023-03-17T06:05:20.810Z,0.97
2023-03-17T06:07:38.170Z,1.63
2023-03-17T06:09:58.857Z,1.90
2023-03-17T06:12:08.541Z,1.93
2023-03-17T06:14:17.818Z,0.80
2023-03-17T06:16:29.062Z,3.73
2023-03-17T06:18:38.228Z,2.70
2023-03-17T06:20:47.193Z,2.33
2023-03-17T06:23:04.425Z,3.13
2023-03-17T06:25:15.935Z,2.03
2023-03-17T06:27:25.207Z,1.67
2023-03-17T06:29:34.273Z,2.20
2023-03-17T06:31:43.759Z,0.87
2023-03-17T06:33:52.825Z,1.73
2023-03-17T06:36:01.949Z,1.10
2023-03-17T06:38:11.007Z,1.60
2023-03-17T06:40:21.159Z,1.93
2023-03-17T06:42:30.600Z,1.30
2023-03-17T06:44:40.366Z,2.63
2023-03-17T06:46:49.046Z,3.17
2023-03-17T06:48:57.646Z,0.70
2023-03-17T06:51:06.907Z,1.00
2023-03-17T06:53:15.707Z,1.77
2023-03-17T06:55:26.114Z,1.23
2023-03-17T06:57:34.825Z,2.40
2023-03-17T06:59:43.651Z,2.00
2023-03-17T07:01:52.736Z,2.73
2023-03-17T07:04:02.044Z,1.47
2023-03-17T07:06:11.044Z,1.10
2023-03-17T07:08:20.022Z,2.10
2023-03-17T07:10:30.461Z,2.63
2023-03-17T07:12:39.499Z,2.77
2023-03-17T07:14:48.592Z,2.33
2023-03-17T07:16:57.518Z,0.90
2023-03-17T07:19:07.471Z,1.30
2023-03-17T07:21:16.978Z,2.00
2023-03-17T07:23:26.444Z,2.23
2023-03-17T07:25:38.067Z,2.73
2023-03-17T07:27:47.192Z,1.53
2023-03-17T07:29:56.568Z,2.00
2023-03-17T07:32:08.253Z,0.83
2023-03-17T07:34:18.268Z,1.30
2023-03-17T07:36:27.679Z,1.60
2023-03-17T07:38:36.610Z,2.10
2023-03-17T07:40:49.115Z,1.43
2023-03-17T07:42:58.157Z,2.47
2023-03-17T07:45:08.100Z,1.93
2023-03-17T07:47:16.865Z,1.13
2023-03-17T07:49:40.346Z,1.40
2023-03-17T07:51:49.881Z,2.27
2023-03-17T07:54:04.069Z,1.17
2023-03-17T07:56:14.894Z,2.20
2023-03-17T07:58:23.629Z,3.03
2023-03-17T08:00:32.635Z,2.40
2023-03-17T08:02:41.765Z,1.67
2023-03-17T08:04:51.242Z,1.80
2023-03-17T08:07:00.063Z,1.50
2023-03-17T08:09:09.289Z,1.63
2023-03-17T08:11:20.228Z,1.70
2023-03-17T08:13:30.210Z,1.57
2023-03-17T08:15:39.103Z,2.23
2023-03-17T08:17:48.457Z,2.57
2023-03-17T08:19:57.356Z,1.50
2023-03-17T08:22:06.196Z,1.23
2023-03-17T08:24:15.991Z,1.40
2023-03-17T08:26:27.141Z,3.53
2023-03-17T08:28:36.652Z,1.77
2023-03-17T08:30:50.467Z,2.10
2023-03-17T08:33:00.273Z,2.27
2023-03-17T08:35:09.550Z,1.50
2023-03-17T08:37:18.550Z,2.43
2023-03-17T08:39:27.419Z,1.80
2023-03-17T08:41:38.697Z,3.43
2023-03-17T08:43:48.076Z,2.67
2023-03-17T08:46:03.179Z,1.07
2023-03-17T08:48:12.221Z,1.63
2023-03-17T08:50:22.236Z,1.33
2023-03-17T08:52:31.720Z,2.67
2023-03-17T08:54:40.502Z,1.80
2023-03-17T08:56:51.268Z,1.90
2023-03-17T08:59:00.303Z,2.70
2023-03-17T09:01:09.628Z,1.93
2023-03-17T09:03:18.948Z,3.50
2023-03-17T09:05:27.784Z,1.17
2023-03-17T09:07:36.631Z,2.87
2023-03-17T09:09:46.222Z,2.93
2023-03-17T09:11:57.020Z,3.17
2023-03-17T09:14:06.001Z,1.10
2023-03-17T09:16:18.319Z,2.20
2023-03-17T09:18:27.380Z,2.47
2023-03-17T09:20:36.403Z,1.33
2023-03-17T09:22:45.203Z,3.43
2023-03-17T09:24:54.152Z,1.37
2023-03-17T09:27:05.001Z,2.60
2023-03-17T09:29:15.452Z,3.13
2023-03-17T09:31:24.697Z,1.90
2023-03-17T09:33:33.441Z,2.30
2023-03-17T09:35:43.041Z,2.43
2023-03-17T09:37:51.727Z,1.43
2023-03-17T09:40:00.677Z,0.90
2023-03-17T09:45:04.120Z,1.57
2023-03-17T09:47:18.713Z,2.90
2023-03-17T09:49:31.434Z,3.07
2023-03-17T09:51:40.833Z,0.90
2023-03-17T09:53:52.890Z,1.63
2023-03-17T09:56:03.960Z,1.00
2023-03-17T09:58:13.941Z,0.70
2023-03-17T10:00:27.674Z,2.00
2023-03-17T10:02:37.827Z,1.77
2023-03-17T10:04:48.153Z,3.20
2023-03-17T10:07:01.476Z,3.70
2023-03-17T10:09:17.922Z,1.47
2023-03-17T10:11:34.717Z,4.83
2023-03-17T10:13:49.276Z,2.50
2023-03-17T10:16:02.725Z,2.50
2023-03-17T10:18:12.876Z,1.80
2023-03-17T10:20:25.635Z,3.17
2023-03-17T10:22:37.155Z,2.83
2023-03-17T10:24:48.198Z,1.43
2023-03-17T10:26:59.792Z,2.67
2023-03-17T10:29:13.330Z,1.70
2023-03-17T10:31:30.894Z,1.77
2023-03-17T10:33:40.075Z,2.63
2023-03-17T10:35:49.172Z,1.40
2023-03-17T10:38:13.603Z,3.97
2023-03-17T10:40:24.553Z,4.20
2023-03-17T10:42:35.735Z,2.37
2023-03-17T10:44:46.117Z,2.00
2023-03-17T10:46:57.376Z,1.83
2023-03-17T10:49:09.768Z,1.07
2023-03-17T10:51:23.030Z,1.40
2023-03-17T10:53:39.006Z,2.83
2023-03-17T10:55:51.759Z,1.73
2023-03-17T10:58:04.366Z,2.17
2023-03-17T11:00:16.730Z,1.90
2023-03-17T11:02:29.938Z,2.43
2023-03-17T11:04:39.880Z,2.80
2023-03-17T11:06:53.072Z,3.10
2023-03-17T11:09:07.614Z,1.30
2023-03-17T11:11:24.842Z,2.70
2023-03-17T11:13:33.436Z,1.40
2023-03-17T11:15:43.880Z,2.20
2023-03-17T11:17:57.250Z,1.60
2023-03-17T11:20:11.940Z,1.83
2023-03-17T11:22:23.218Z,1.47
2023-03-17T11:24:33.626Z,2.70
2023-03-17T11:26:50.050Z,0.73
2023-03-17T11:29:03.962Z,1.60
2023-03-17T11:31:15.815Z,1.50
2023-03-17T11:33:35.530Z,0.93
2023-03-17T11:35:51.900Z,3.70
2023-03-17T11:38:12.415Z,3.07
2023-03-17T11:40:22.981Z,1.63
2023-03-17T11:42:35.390Z,3.03
2023-03-17T11:45:02.659Z,3.13
2023-03-17T11:47:16.369Z,4.67
2023-03-17T11:49:30.782Z,2.37
2023-03-17T11:51:46.117Z,4.53
2023-03-17T11:54:02.511Z,2.97
2023-03-17T11:56:16.968Z,1.57
2023-03-17T11:58:30.631Z,1.60
2023-03-17T12:00:43.859Z,1.73
2023-03-17T12:02:56.459Z,3.83
2023-03-17T12:05:10.068Z,1.73
2023-03-17T12:07:22.268Z,2.33
2023-03-17T12:09:33.818Z,5.00
2023-03-17T12:11:43.554Z,3.43
2023-03-17T12:13:55.406Z,2.03
2023-03-17T12:16:06.663Z,2.03
2023-03-17T12:18:17.887Z,3.87
2023-03-17T12:20:32.222Z,2.77
2023-03-17T12:22:43.474Z,2.87
2023-03-17T12:24:56.661Z,1.67
2023-03-17T12:27:06.682Z,3.90
2023-03-17T12:29:18.318Z,3.67
2023-03-17T12:31:28.164Z,5.33
2023-03-17T12:33:40.678Z,3.23
2023-03-17T12:35:50.663Z,3.40
2023-03-17T12:38:01.477Z,3.27
2023-03-17T12:40:15.278Z,3.70
2023-03-17T12:42:31.452Z,2.20
2023-03-17T12:44:48.485Z,2.30
2023-03-17T12:47:15.190Z,2.73
2023-03-17T12:49:33.172Z,3.63
2023-03-17T12:51:50.148Z,2.57
2023-03-17T12:54:00.416Z,2.73
2023-03-17T12:56:13.049Z,4.47
2023-03-17T12:58:28.873Z,3.63
2023-03-17T13:00:50.740Z,3.80
2023-03-17T13:03:17.510Z,2.30
2023-03-17T13:05:33.211Z,2.93
2023-03-17T13:07:51.098Z,2.20
2023-03-17T13:10:14.520Z,3.73
2023-03-17T13:12:53.748Z,2.30
2023-03-17T13:15:02.781Z,2.00
2023-03-17T13:17:29.375Z,4.00
2023-03-17T13:19:49.116Z,2.43
2023-03-17T13:22:20.549Z,3.53
2023-03-17T13:24:47.142Z,2.07
2023-03-17T13:26:58.275Z,3.17
2023-03-17T13:29:25.571Z,1.50
2023-03-17T13:31:35.607Z,4.17
2023-03-17T13:33:47.477Z,3.47
2023-03-17T13:36:17.494Z,3.67
2023-03-17T13:38:35.211Z,4.40
2023-03-17T13:40:51.876Z,6.20
2023-03-17T13:43:09.558Z,5.43
2023-03-17T13:45:35.043Z,3.43
2023-03-17T13:47:44.679Z,3.37
2023-03-17T13:49:59.267Z,3.87
2023-03-17T13:52:10.713Z,5.83
2023-03-17T13:54:23.813Z,4.20
2023-03-17T13:56:49.057Z,16.10
2023-03-17T13:59:07.364Z,9.17
2023-03-17T14:01:16.755Z,3.37
2023-03-17T14:03:32.290Z,3.80
2023-03-17T14:05:41.809Z,5.77
2023-03-17T14:07:53.436Z,7.43
2023-03-17T14:10:05.278Z,12.23
2023-03-17T14:12:20.538Z,5.30
2023-03-17T14:14:36.552Z,7.33
2023-03-17T14:16:46.761Z,4.20
2023-03-17T14:18:59.727Z,6.17
2023-03-17T14:21:11.767Z,3.77
2023-03-17T14:23:21.499Z,3.10
2023-03-17T14:25:34.253Z,6.57
2023-03-17T14:27:46.355Z,6.30
2023-03-17T14:29:55.145Z,3.40
2023-03-17T14:32:06.153Z,4.90
2023-03-17T14:34:16.113Z,4.10
2023-03-17T14:36:26.081Z,3.77
2023-03-17T14:38:36.839Z,8.33
2023-03-17T14:40:45.664Z,3.63
2023-03-17T14:42:56.357Z,8.30
2023-03-17T14:45:06.348Z,6.50
2023-03-17T14:47:17.499Z,5.27
2023-03-17T14:49:27.101Z,6.07
2023-03-17T14:51:37.199Z,6.53
2023-03-17T14:53:47.250Z,4.67
2023-03-17T14:55:56.177Z,3.07
2023-03-17T14:58:11.456Z,5.40
2023-03-17T15:00:38.102Z,4.50
2023-03-17T15:02:56.346Z,4.90
2023-03-17T15:05:24.148Z,2.87
2023-03-17T15:07:37.876Z,3.27
2023-03-17T15:09:46.711Z,5.67
2023-03-17T15:11:56.783Z,5.10
2023-03-17T15:14:15.360Z,2.27
2023-03-17T15:16:26.108Z,4.33
2023-03-17T15:18:35.129Z,3.80
2023-03-17T15:20:45.961Z,3.80
2023-03-17T15:22:59.497Z,3.17
2023-03-17T15:25:19.152Z,2.33
2023-03-17T15:27:28.581Z,4.53
2023-03-17T15:29:38.681Z,4.83
2023-03-17T15:31:48.042Z,6.43
2023-03-17T15:33:57.733Z,3.60
2023-03-17T15:36:08.140Z,2.67
2023-03-17T15:38:16.941Z,4.50
2023-03-17T15:40:25.838Z,3.67
2023-03-17T15:42:36.307Z,3.80
2023-03-17T15:44:47.768Z,7.23
2023-03-17T15:46:57.078Z,4.67
2023-03-17T15:49:11.280Z,5.00
2023-03-17T15:51:20.268Z,5.37
2023-03-17T15:53:30.382Z,4.73
2023-03-17T15:55:39.153Z,6.73
2023-03-17T15:57:54.841Z,3.70
2023-03-17T16:00:06.472Z,6.77
2023-03-17T16:02:27.508Z,1.97
2023-03-17T16:04:37.008Z,3.10
2023-03-17T16:06:48.003Z,3.63
2023-03-17T16:08:57.640Z,5.17
2023-03-17T16:11:07.841Z,3.53
2023-03-17T16:13:16.979Z,3.40
2023-03-17T16:15:28.554Z,5.63
2023-03-17T16:17:37.402Z,6.00
2023-03-17T16:19:46.258Z,3.53
2023-03-17T16:21:55.564Z,3.70
2023-03-17T16:24:04.608Z,10.10
2023-03-17T16:26:16.470Z,7.53
2023-03-17T16:28:26.702Z,2.47
2023-03-17T16:30:37.171Z,3.97
2023-03-17T16:32:45.813Z,10.47
2023-03-17T16:34:54.887Z,6.00
2023-03-17T16:37:04.284Z,3.67
2023-03-17T16:39:19.189Z,7.67
2023-03-17T16:41:29.667Z,5.67
2023-03-17T16:43:39.344Z,4.97
2023-03-17T16:45:50.977Z,4.87
2023-03-17T16:47:59.751Z,6.20
2023-03-17T16:50:09.538Z,4.97
2023-03-17T16:52:18.879Z,9.27
2023-03-17T16:54:31.438Z,5.63
2023-03-17T16:56:41.265Z,5.30
2023-03-17T16:58:50.979Z,6.07
2023-03-17T17:01:02.119Z,3.77
2023-03-17T17:03:11.185Z,7.50
2023-03-17T17:05:21.562Z,8.10
2023-03-17T17:07:30.699Z,5.80
2023-03-17T17:09:39.429Z,6.87
2023-03-17T17:11:48.455Z,6.73
2023-03-17T17:13:58.676Z,5.40
2023-03-17T17:16:10.612Z,5.23
2023-03-17T17:18:22.028Z,6.20
2023-03-17T17:20:33.552Z,8.53
2023-03-17T17:22:42.664Z,6.67
2023-03-17T17:24:51.628Z,7.23
2023-03-17T17:27:00.564Z,6.10
2023-03-17T17:29:09.088Z,8.23
2023-03-17T17:31:19.738Z,6.53
2023-03-17T17:33:28.726Z,7.10
2023-03-17T17:35:37.600Z,10.77
2023-03-17T17:37:46.346Z,6.50
2023-03-17T17:39:55.172Z,5.90
2023-03-17T17:42:03.820Z,6.80
2023-03-17T17:44:12.909Z,6.97
2023-03-17T17:46:24.643Z,6.60
2023-03-17T17:48:33.704Z,13.30
2023-03-17T17:50:42.313Z,6.30
2023-03-17T17:52:51.338Z,8.83
2023-03-17T17:55:01.499Z,7.47
2023-03-17T17:57:10.515Z,6.00
2023-03-17T17:59:19.467Z,9.80
2023-03-17T18:01:29.940Z,5.93
2023-03-17T18:03:41.817Z,7.60
2023-03-17T18:05:50.857Z,5.90
2023-03-17T18:08:00.282Z,8.87
2023-03-17T18:10:09.503Z,6.93
2023-03-17T18:12:18.421Z,8.20
2023-03-17T18:14:27.840Z,9.60
2023-03-17T18:16:38.326Z,10.70
2023-03-17T18:18:47.819Z,10.73
2023-03-17T18:20:56.595Z,8.87
2023-03-17T18:23:05.638Z,8.97
2023-03-17T18:25:16.032Z,7.43
2023-03-17T18:27:25.239Z,7.53
2023-03-17T18:29:34.118Z,9.30
2023-03-17T18:31:45.386Z,7.57
2023-03-17T18:33:56.504Z,7.77
2023-03-17T18:36:07.362Z,9.93
2023-03-17T18:38:16.138Z,9.23
2023-03-17T18:40:24.709Z,7.80
2023-03-17T18:42:33.827Z,7.70
2023-03-17T18:44:42.813Z,8.03
2023-03-17T18:46:53.282Z,9.70
2023-03-17T18:49:02.026Z,7.57
2023-03-17T18:51:11.385Z,10.50
2023-03-17T18:53:20.164Z,9.37
2023-03-17T18:55:28.856Z,8.10
2023-03-17T18:57:37.544Z,8.83
2023-03-17T18:59:46.281Z,9.50
2023-03-17T19:01:56.798Z,10.17
2023-03-17T19:04:05.880Z,11.00
2023-03-17T19:06:15.710Z,10.37
2023-03-17T19:08:25.350Z,7.83
2023-03-17T19:10:34.600Z,11.20
2023-03-17T19:12:44.410Z,9.97
2023-03-17T19:14:53.085Z,9.87
2023-03-17T19:17:04.013Z,13.00
2023-03-17T19:19:13.242Z,10.93
2023-03-17T19:21:22.255Z,8.47
2023-03-17T19:23:32.304Z,16.13
2023-03-17T19:25:41.180Z,7.93
2023-03-17T19:27:50.421Z,14.87
2023-03-17T19:29:59.224Z,8.53
2023-03-17T19:32:10.107Z,12.13
2023-03-17T19:34:18.920Z,8.77
2023-03-17T19:36:27.569Z,10.33
2023-03-17T19:38:36.723Z,11.10
2023-03-17T19:40:45.583Z,11.50
2023-03-17T19:42:54.848Z,11.30
2023-03-17T19:45:03.728Z,12.20
2023-03-17T19:47:14.149Z,14.50
2023-03-17T19:49:22.779Z,11.43
2023-03-17T19:51:31.909Z,10.27
2023-03-17T19:53:40.583Z,13.33
2023-03-17T19:55:50.013Z,12.83
2023-03-17T19:57:58.852Z,12.23
2023-03-17T20:00:11.127Z,12.00
2023-03-17T20:02:22.095Z,11.33
2023-03-17T20:04:31.478Z,11.03
2023-03-17T20:06:40.276Z,12.03
2023-03-17T20:08:49.098Z,12.17
2023-03-17T20:10:58.167Z,10.83
2023-03-17T20:13:07.577Z,11.80
2023-03-17T20:15:16.780Z,14.77
2023-03-17T20:17:27.303Z,11.47
2023-03-17T20:19:39.495Z,13.73
2023-03-17T20:21:48.151Z,13.63
2023-03-17T20:23:56.985Z,12.20
2023-03-17T20:26:07.011Z,11.13
2023-03-17T20:28:16.762Z,12.20
2023-03-17T20:30:25.663Z,13.47
2023-03-17T20:32:36.187Z,10.43
2023-03-17T20:34:45.623Z,14.70
2023-03-17T20:36:55.081Z,11.67
2023-03-17T20:39:04.866Z,12.70
2023-03-17T20:41:14.810Z,11.33
2023-03-17T20:43:23.793Z,10.77
2023-03-17T20:45:33.200Z,13.47
2023-03-17T20:47:44.209Z,11.33
2023-03-17T20:49:54.678Z,12.93
2023-03-17T20:52:06.059Z,9.67
2023-03-17T20:54:15.089Z,10.67
2023-03-17T20:56:26.890Z,12.97
2023-03-17T20:58:35.822Z,12.43
2023-03-17T21:00:44.744Z,17.17
2023-03-17T21:02:56.189Z,11.23
2023-03-17T21:05:05.040Z,11.93
2023-03-17T21:07:13.771Z,9.17
2023-03-17T21:09:22.690Z,11.37
2023-03-17T21:11:31.514Z,10.33
2023-03-17T21:13:40.516Z,13.30
2023-03-17T21:15:49.881Z,12.40
2023-03-17T21:18:00.240Z,10.73
2023-03-17T21:20:10.161Z,11.47
2023-03-17T21:22:19.163Z,14.27
2023-03-17T21:24:29.003Z,9.40
2023-03-17T21:26:38.447Z,13.50
2023-03-17T21:28:47.733Z,14.80
2023-03-17T21:30:57.067Z,9.27
2023-03-17T21:33:07.956Z,15.60
2023-03-17T21:35:16.605Z,10.70
2023-03-17T21:37:25.227Z,15.83
2023-03-17T21:39:34.204Z,10.10
2023-03-17T21:41:43.606Z,14.03
2023-03-17T21:43:52.324Z,12.70
2023-03-17T21:46:01.850Z,10.47
2023-03-17T21:48:12.313Z,12.97
2023-03-17T21:50:21.898Z,11.87
2023-03-17T21:52:30.736Z,11.77
2023-03-17T21:54:39.459Z,16.73
2023-03-17T21:56:49.527Z,11.93
2023-03-17T21:58:59.095Z,12.03
2023-03-17T22:01:09.212Z,14.50
2023-03-17T22:03:20.053Z,11.23
2023-03-17T22:05:29.228Z,12.73
2023-03-17T22:07:39.035Z,17.90
2023-03-17T22:09:48.396Z,15.60
2023-03-17T22:11:57.390Z,10.47
2023-03-17T22:14:06.531Z,15.27
2023-03-17T22:16:16.688Z,11.27
2023-03-17T22:18:27.208Z,11.73
2023-03-17T22:20:36.417Z,13.47
2023-03-17T22:22:45.004Z,14.17
2023-03-17T22:24:53.659Z,11.90
2023-03-17T22:27:02.222Z,15.37
2023-03-17T22:29:11.393Z,13.53
2023-03-17T22:31:22.175Z,14.57
2023-03-17T22:33:33.107Z,12.23
2023-03-17T22:35:42.110Z,9.40
2023-03-17T22:37:51.295Z,11.80
2023-03-17T22:40:04.275Z,17.23
2023-03-17T22:42:12.952Z,13.40
2023-03-17T22:44:22.327Z,11.33
2023-03-17T22:46:31.851Z,14.37
2023-03-17T22:48:42.465Z,10.77
2023-03-17T22:50:51.389Z,17.13
2023-03-17T22:53:00.146Z,12.13
2023-03-17T22:55:09.926Z,13.07
2023-03-17T22:57:18.773Z,16.27
2023-03-17T22:59:27.776Z,15.17
2023-03-17T23:01:36.992Z,11.00
2023-03-17T23:03:47.446Z,10.67
2023-03-17T23:05:57.755Z,11.33
2023-03-17T23:08:06.889Z,11.67
2023-03-17T23:10:16.715Z,16.07
2023-03-17T23:12:28.677Z,14.60
2023-03-17T23:14:37.561Z,18.53
2023-03-17T23:16:47.188Z,12.37
2023-03-17T23:18:57.155Z,11.93
2023-03-17T23:21:06.971Z,14.80
2023-03-17T23:23:16.038Z,12.23
2023-03-17T23:25:25.415Z,15.53
2023-03-17T23:27:33.986Z,13.27
2023-03-17T23:29:42.665Z,13.63
2023-03-17T23:31:51.188Z,9.90
2023-03-17T23:34:01.876Z,15.50
2023-03-17T23:36:11.469Z,11.30
2023-03-17T23:38:21.600Z,13.00
2023-03-17T23:40:30.776Z,11.47
2023-03-17T23:42:39.515Z,15.47
2023-03-17T23:44:48.294Z,12.47
2023-03-17T23:46:57.267Z,13.27
2023-03-17T23:49:08.333Z,12.30
2023-03-17T23:51:17.968Z,17.90
2023-03-17T23:53:28.185Z,16.23
2023-03-17T23:55:37.088Z,11.13
2023-03-17T23:57:45.941Z,11.57
2023-03-17T23:59:54.871Z,13.47
